sensor_id;sensor_type;location;lat;lon;timestamp;P1;durP1;ratioP1;P2;durP2;ratioP2
59587;SDS011;45412;54.472;18.464;2023-02-22T00:01:52;7.30;;;2.70;;
59587;SDS011;45412;54.472;18.464;2023-02-22T00:04:57;7.70;;;2.30;;
59587;SDS011;45412;54.472;18.464;2023-02-22T00:07:46;7.90;;;2.20;;
59587;SDS011;45412;54.472;18.464;2023-02-22T00:10:34;8.10;;;2.20;;
59587;SDS011;45412;54.472;18.464;2023-02-22T00:13:25;8.70;;;2.70;;
59587;SDS011;45412;54.472;18.464;2023-02-22T00:16:17;11.10;;;2.70;;
59587;SDS011;45412;54.472;18.464;2023-02-22T00:19:08;11.70;;;2.70;;
59587;SDS011;45412;54.472;18.464;2023-02-22T00:21:57;8.60;;;2.70;;
59587;SDS011;45412;54.472;18.464;2023-02-22T00:24:44;9.30;;;2.80;;
59587;SDS011;45412;54.472;18.464;2023-02-22T00:27:32;9.60;;;2.80;;
59587;SDS011;45412;54.472;18.464;2023-02-22T00:30:22;10.20;;;3.10;;
59587;SDS011;45412;54.472;18.464;2023-02-22T00:33:14;9.60;;;2.90;;
59587;SDS011;45412;54.472;18.464;2023-02-22T00:36:01;9.80;;;3.20;;
59587;SDS011;45412;54.472;18.464;2023-02-22T00:38:49;10.70;;;3.20;;
59587;SDS011;45412;54.472;18.464;2023-02-22T00:41:37;9.50;;;3.50;;
59587;SDS011;45412;54.472;18.464;2023-02-22T00:44:25;8.70;;;3.10;;
59587;SDS011;45412;54.472;18.464;2023-02-22T00:47:13;8.50;;;2.70;;
59587;SDS011;45412;54.472;18.464;2023-02-22T00:50:01;8.20;;;2.60;;
59587;SDS011;45412;54.472;18.464;2023-02-22T00:52:50;8.00;;;2.70;;
59587;SDS011;45412;54.472;18.464;2023-02-22T00:55:39;8.10;;;2.90;;
59587;SDS011;45412;54.472;18.464;2023-02-22T00:58:26;10.40;;;3.70;;
59587;SDS011;45412;54.472;18.464;2023-02-22T01:01:17;7.80;;;3.30;;
59587;SDS011;45412;54.472;18.464;2023-02-22T01:04:05;9.00;;;3.00;;
59587;SDS011;45412;54.472;18.464;2023-02-22T01:06:53;7.10;;;2.30;;
59587;SDS011;45412;54.472;18.464;2023-02-22T01:09:41;8.10;;;2.70;;
59587;SDS011;45412;54.472;18.464;2023-02-22T01:12:30;7.60;;;2.60;;
59587;SDS011;45412;54.472;18.464;2023-02-22T01:15:21;8.80;;;2.60;;
59587;SDS011;45412;54.472;18.464;2023-02-22T01:18:11;10.30;;;3.20;;
59587;SDS011;45412;54.472;18.464;2023-02-22T01:20:59;7.70;;;2.90;;
59587;SDS011;45412;54.472;18.464;2023-02-22T01:23:48;8.90;;;3.30;;
59587;SDS011;45412;54.472;18.464;2023-02-22T01:26:35;7.70;;;2.60;;
59587;SDS011;45412;54.472;18.464;2023-02-22T01:29:24;8.90;;;2.80;;
59587;SDS011;45412;54.472;18.464;2023-02-22T01:32:12;9.00;;;3.00;;
59587;SDS011;45412;54.472;18.464;2023-02-22T01:35:03;7.30;;;2.40;;
59587;SDS011;45412;54.472;18.464;2023-02-22T01:37:55;8.20;;;3.00;;
59587;SDS011;45412;54.472;18.464;2023-02-22T01:40:49;7.30;;;2.60;;
59587;SDS011;45412;54.472;18.464;2023-02-22T01:43:38;7.10;;;2.10;;
59587;SDS011;45412;54.472;18.464;2023-02-22T01:46:26;6.70;;;2.10;;
59587;SDS011;45412;54.472;18.464;2023-02-22T01:49:16;7.30;;;2.50;;
59587;SDS011;45412;54.472;18.464;2023-02-22T01:52:07;7.00;;;2.60;;
59587;SDS011;45412;54.472;18.464;2023-02-22T01:54:58;8.00;;;2.70;;
59587;SDS011;45412;54.472;18.464;2023-02-22T01:57:47;7.70;;;2.60;;
59587;SDS011;45412;54.472;18.464;2023-02-22T02:00:36;10.60;;;2.70;;
59587;SDS011;45412;54.472;18.464;2023-02-22T02:03:31;7.40;;;2.70;;
59587;SDS011;45412;54.472;18.464;2023-02-22T02:06:21;9.00;;;3.80;;
59587;SDS011;45412;54.472;18.464;2023-02-22T02:09:15;10.70;;;3.30;;
59587;SDS011;45412;54.472;18.464;2023-02-22T02:12:10;8.30;;;3.00;;
59587;SDS011;45412;54.472;18.464;2023-02-22T02:18:08;11.60;;;3.30;;
59587;SDS011;45412;54.472;18.464;2023-02-22T02:31:33;8.60;;;2.80;;
59587;SDS011;45412;54.472;18.464;2023-02-22T02:37:56;10.00;;;3.50;;
59587;SDS011;45412;54.472;18.464;2023-02-22T02:47:52;11.70;;;3.50;;
59587;SDS011;45412;54.472;18.464;2023-02-22T02:50:47;11.10;;;4.00;;
59587;SDS011;45412;54.472;18.464;2023-02-22T02:53:38;11.20;;;3.70;;
59587;SDS011;45412;54.472;18.464;2023-02-22T02:56:29;21.50;;;5.80;;
59587;SDS011;45412;54.472;18.464;2023-02-22T02:59:32;27.30;;;11.10;;
59587;SDS011;45412;54.472;18.464;2023-02-22T03:02:57;58.40;;;20.20;;
59587;SDS011;45412;54.472;18.464;2023-02-22T03:10:01;48.60;;;15.60;;
59587;SDS011;45412;54.472;18.464;2023-02-22T03:12:59;16.70;;;5.80;;
59587;SDS011;45412;54.472;18.464;2023-02-22T03:16:18;10.60;;;4.60;;
59587;SDS011;45412;54.472;18.464;2023-02-22T03:19:19;18.90;;;7.10;;
59587;SDS011;45412;54.472;18.464;2023-02-22T03:22:26;23.90;;;8.50;;
59587;SDS011;45412;54.472;18.464;2023-02-22T03:25:29;14.10;;;5.10;;
59587;SDS011;45412;54.472;18.464;2023-02-22T03:28:32;14.20;;;5.00;;
59587;SDS011;45412;54.472;18.464;2023-02-22T03:31:28;12.30;;;4.80;;
59587;SDS011;45412;54.472;18.464;2023-02-22T03:34:36;12.50;;;4.20;;
59587;SDS011;45412;54.472;18.464;2023-02-22T03:37:31;9.90;;;3.70;;
59587;SDS011;45412;54.472;18.464;2023-02-22T03:40:28;11.70;;;3.80;;
59587;SDS011;45412;54.472;18.464;2023-02-22T03:43:23;11.60;;;4.20;;
59587;SDS011;45412;54.472;18.464;2023-02-22T03:46:17;10.20;;;3.50;;
59587;SDS011;45412;54.472;18.464;2023-02-22T03:49:11;10.30;;;4.20;;
59587;SDS011;45412;54.472;18.464;2023-02-22T03:52:07;9.70;;;3.90;;
59587;SDS011;45412;54.472;18.464;2023-02-22T03:54:56;11.80;;;4.00;;
59587;SDS011;45412;54.472;18.464;2023-02-22T03:57:47;9.90;;;3.90;;
59587;SDS011;45412;54.472;18.464;2023-02-22T04:00:38;11.00;;;3.90;;
59587;SDS011;45412;54.472;18.464;2023-02-22T04:03:31;12.70;;;3.30;;
59587;SDS011;45412;54.472;18.464;2023-02-22T04:06:19;9.80;;;3.30;;
59587;SDS011;45412;54.472;18.464;2023-02-22T04:09:07;10.10;;;3.20;;
59587;SDS011;45412;54.472;18.464;2023-02-22T04:11:54;10.50;;;3.60;;
59587;SDS011;45412;54.472;18.464;2023-02-22T04:14:43;13.00;;;4.70;;
59587;SDS011;45412;54.472;18.464;2023-02-22T04:17:30;10.80;;;4.10;;
59587;SDS011;45412;54.472;18.464;2023-02-22T04:20:20;8.80;;;3.30;;
59587;SDS011;45412;54.472;18.464;2023-02-22T04:23:17;10.10;;;3.50;;
59587;SDS011;45412;54.472;18.464;2023-02-22T04:26:05;10.70;;;3.90;;
59587;SDS011;45412;54.472;18.464;2023-02-22T04:28:53;12.90;;;5.30;;
59587;SDS011;45412;54.472;18.464;2023-02-22T04:31:44;20.90;;;10.20;;
59587;SDS011;45412;54.472;18.464;2023-02-22T04:34:32;19.10;;;8.70;;
59587;SDS011;45412;54.472;18.464;2023-02-22T04:37:20;17.40;;;8.10;;
59587;SDS011;45412;54.472;18.464;2023-02-22T04:40:08;15.20;;;7.70;;
59587;SDS011;45412;54.472;18.464;2023-02-22T04:42:58;13.90;;;5.90;;
59587;SDS011;45412;54.472;18.464;2023-02-22T04:45:46;11.40;;;5.20;;
59587;SDS011;45412;54.472;18.464;2023-02-22T04:48:34;10.30;;;4.30;;
59587;SDS011;45412;54.472;18.464;2023-02-22T04:51:23;10.30;;;4.20;;
59587;SDS011;45412;54.472;18.464;2023-02-22T04:54:31;13.50;;;5.20;;
59587;SDS011;45412;54.472;18.464;2023-02-22T04:57:19;11.60;;;4.20;;
59587;SDS011;45412;54.472;18.464;2023-02-22T05:00:10;13.50;;;4.40;;
59587;SDS011;45412;54.472;18.464;2023-02-22T05:03:03;10.60;;;3.60;;
59587;SDS011;45412;54.472;18.464;2023-02-22T05:05:51;9.80;;;4.10;;
59587;SDS011;45412;54.472;18.464;2023-02-22T05:08:39;9.90;;;3.60;;
59587;SDS011;45412;54.472;18.464;2023-02-22T05:11:27;10.80;;;4.10;;
59587;SDS011;45412;54.472;18.464;2023-02-22T05:14:16;8.10;;;3.00;;
59587;SDS011;45412;54.472;18.464;2023-02-22T05:17:04;11.10;;;3.20;;
59587;SDS011;45412;54.472;18.464;2023-02-22T05:19:52;9.20;;;3.60;;
59587;SDS011;45412;54.472;18.464;2023-02-22T05:22:40;9.50;;;3.50;;
59587;SDS011;45412;54.472;18.464;2023-02-22T05:25:31;11.80;;;3.80;;
59587;SDS011;45412;54.472;18.464;2023-02-22T05:28:20;10.70;;;3.80;;
59587;SDS011;45412;54.472;18.464;2023-02-22T05:31:08;10.90;;;3.90;;
59587;SDS011;45412;54.472;18.464;2023-02-22T05:33:56;10.80;;;3.70;;
59587;SDS011;45412;54.472;18.464;2023-02-22T05:36:44;11.00;;;3.60;;
59587;SDS011;45412;54.472;18.464;2023-02-22T05:39:32;10.00;;;3.30;;
59587;SDS011;45412;54.472;18.464;2023-02-22T05:42:20;8.20;;;2.80;;
59587;SDS011;45412;54.472;18.464;2023-02-22T05:45:11;10.00;;;3.50;;
59587;SDS011;45412;54.472;18.464;2023-02-22T05:48:01;10.10;;;3.70;;
59587;SDS011;45412;54.472;18.464;2023-02-22T05:50:49;9.80;;;3.00;;
59587;SDS011;45412;54.472;18.464;2023-02-22T05:53:37;10.10;;;3.40;;
59587;SDS011;45412;54.472;18.464;2023-02-22T05:56:26;8.60;;;3.70;;
59587;SDS011;45412;54.472;18.464;2023-02-22T05:59:16;11.90;;;3.90;;
59587;SDS011;45412;54.472;18.464;2023-02-22T06:02:04;11.40;;;3.60;;
59587;SDS011;45412;54.472;18.464;2023-02-22T06:04:52;11.50;;;4.10;;
59587;SDS011;45412;54.472;18.464;2023-02-22T06:07:41;9.60;;;4.20;;
59587;SDS011;45412;54.472;18.464;2023-02-22T06:10:29;10.20;;;4.10;;
59587;SDS011;45412;54.472;18.464;2023-02-22T06:13:17;10.00;;;3.70;;
59587;SDS011;45412;54.472;18.464;2023-02-22T06:16:06;10.50;;;3.80;;
59587;SDS011;45412;54.472;18.464;2023-02-22T06:18:54;9.60;;;3.80;;
59587;SDS011;45412;54.472;18.464;2023-02-22T06:21:54;8.80;;;3.90;;
59587;SDS011;45412;54.472;18.464;2023-02-22T06:24:43;7.30;;;3.00;;
59587;SDS011;45412;54.472;18.464;2023-02-22T06:27:32;10.10;;;4.10;;
59587;SDS011;45412;54.472;18.464;2023-02-22T06:30:23;9.90;;;4.10;;
59587;SDS011;45412;54.472;18.464;2023-02-22T06:33:11;10.70;;;4.70;;
59587;SDS011;45412;54.472;18.464;2023-02-22T06:36:00;11.30;;;5.20;;
59587;SDS011;45412;54.472;18.464;2023-02-22T06:38:48;12.10;;;5.10;;
59587;SDS011;45412;54.472;18.464;2023-02-22T06:41:37;12.20;;;5.40;;
59587;SDS011;45412;54.472;18.464;2023-02-22T06:44:25;13.50;;;5.80;;
59587;SDS011;45412;54.472;18.464;2023-02-22T06:47:14;18.20;;;8.40;;
59587;SDS011;45412;54.472;18.464;2023-02-22T06:50:01;17.50;;;7.60;;
59587;SDS011;45412;54.472;18.464;2023-02-22T06:52:50;17.80;;;7.30;;
59587;SDS011;45412;54.472;18.464;2023-02-22T06:55:39;14.00;;;6.20;;
59587;SDS011;45412;54.472;18.464;2023-02-22T06:58:27;14.40;;;5.70;;
59587;SDS011;45412;54.472;18.464;2023-02-22T07:01:15;13.10;;;5.50;;
59587;SDS011;45412;54.472;18.464;2023-02-22T07:04:03;10.40;;;5.00;;
59587;SDS011;45412;54.472;18.464;2023-02-22T07:06:51;13.20;;;4.60;;
59587;SDS011;45412;54.472;18.464;2023-02-22T07:09:39;15.20;;;6.00;;
59587;SDS011;45412;54.472;18.464;2023-02-22T07:12:27;14.20;;;5.50;;
59587;SDS011;45412;54.472;18.464;2023-02-22T07:15:16;11.80;;;5.40;;
59587;SDS011;45412;54.472;18.464;2023-02-22T07:18:05;14.40;;;6.00;;
59587;SDS011;45412;54.472;18.464;2023-02-22T07:20:53;12.90;;;5.40;;
59587;SDS011;45412;54.472;18.464;2023-02-22T07:23:51;11.50;;;4.50;;
59587;SDS011;45412;54.472;18.464;2023-02-22T07:26:41;11.60;;;4.30;;
59587;SDS011;45412;54.472;18.464;2023-02-22T07:29:29;8.40;;;3.80;;
59587;SDS011;45412;54.472;18.464;2023-02-22T07:32:18;9.10;;;3.80;;
59587;SDS011;45412;54.472;18.464;2023-02-22T07:35:13;8.70;;;3.50;;
59587;SDS011;45412;54.472;18.464;2023-02-22T07:38:06;10.30;;;3.60;;
59587;SDS011;45412;54.472;18.464;2023-02-22T07:40:55;10.30;;;3.80;;
59587;SDS011;45412;54.472;18.464;2023-02-22T07:43:44;9.70;;;4.30;;
59587;SDS011;45412;54.472;18.464;2023-02-22T07:46:32;8.80;;;3.60;;
59587;SDS011;45412;54.472;18.464;2023-02-22T07:49:20;9.50;;;3.40;;
59587;SDS011;45412;54.472;18.464;2023-02-22T07:52:09;8.60;;;3.60;;
59587;SDS011;45412;54.472;18.464;2023-02-22T07:54:59;8.40;;;3.10;;
59587;SDS011;45412;54.472;18.464;2023-02-22T07:57:48;10.20;;;4.30;;
59587;SDS011;45412;54.472;18.464;2023-02-22T08:00:38;8.40;;;3.70;;
59587;SDS011;45412;54.472;18.464;2023-02-22T08:03:30;9.20;;;3.00;;
59587;SDS011;45412;54.472;18.464;2023-02-22T08:06:23;7.40;;;2.60;;
59587;SDS011;45412;54.472;18.464;2023-02-22T08:09:12;9.70;;;3.50;;
59587;SDS011;45412;54.472;18.464;2023-02-22T08:12:00;10.20;;;3.30;;
59587;SDS011;45412;54.472;18.464;2023-02-22T08:14:48;7.30;;;3.00;;
59587;SDS011;45412;54.472;18.464;2023-02-22T08:17:37;9.30;;;2.90;;
59587;SDS011;45412;54.472;18.464;2023-02-22T08:20:25;8.40;;;3.10;;
59587;SDS011;45412;54.472;18.464;2023-02-22T08:23:15;6.80;;;2.30;;
59587;SDS011;45412;54.472;18.464;2023-02-22T08:26:07;10.90;;;3.10;;
59587;SDS011;45412;54.472;18.464;2023-02-22T08:28:56;8.10;;;2.90;;
59587;SDS011;45412;54.472;18.464;2023-02-22T08:31:49;7.30;;;2.80;;
59587;SDS011;45412;54.472;18.464;2023-02-22T08:34:42;8.10;;;2.80;;
59587;SDS011;45412;54.472;18.464;2023-02-22T08:37:31;7.90;;;3.20;;
59587;SDS011;45412;54.472;18.464;2023-02-22T08:40:22;9.20;;;3.00;;
59587;SDS011;45412;54.472;18.464;2023-02-22T08:43:11;8.50;;;3.20;;
59587;SDS011;45412;54.472;18.464;2023-02-22T08:46:00;10.30;;;3.30;;
59587;SDS011;45412;54.472;18.464;2023-02-22T08:48:51;8.50;;;3.30;;
59587;SDS011;45412;54.472;18.464;2023-02-22T08:51:39;7.80;;;2.90;;
59587;SDS011;45412;54.472;18.464;2023-02-22T08:54:28;8.70;;;3.20;;
59587;SDS011;45412;54.472;18.464;2023-02-22T08:57:16;7.30;;;3.00;;
59587;SDS011;45412;54.472;18.464;2023-02-22T09:00:08;10.10;;;2.90;;
59587;SDS011;45412;54.472;18.464;2023-02-22T09:03:00;8.30;;;2.60;;
59587;SDS011;45412;54.472;18.464;2023-02-22T09:05:49;10.90;;;3.40;;
59587;SDS011;45412;54.472;18.464;2023-02-22T09:08:38;9.80;;;3.70;;
59587;SDS011;45412;54.472;18.464;2023-02-22T09:11:25;9.90;;;3.30;;
59587;SDS011;45412;54.472;18.464;2023-02-22T09:14:16;9.50;;;3.00;;
59587;SDS011;45412;54.472;18.464;2023-02-22T09:17:04;9.10;;;3.10;;
59587;SDS011;45412;54.472;18.464;2023-02-22T09:19:52;9.10;;;2.50;;
59587;SDS011;45412;54.472;18.464;2023-02-22T09:22:42;8.10;;;3.00;;
59587;SDS011;45412;54.472;18.464;2023-02-22T09:25:32;7.80;;;2.70;;
59587;SDS011;45412;54.472;18.464;2023-02-22T09:28:26;8.40;;;2.50;;
59587;SDS011;45412;54.472;18.464;2023-02-22T09:31:15;7.80;;;2.70;;
59587;SDS011;45412;54.472;18.464;2023-02-22T09:34:05;7.50;;;2.60;;
59587;SDS011;45412;54.472;18.464;2023-02-22T09:37:00;8.60;;;2.70;;
59587;SDS011;45412;54.472;18.464;2023-02-22T09:39:48;11.90;;;5.00;;
59587;SDS011;45412;54.472;18.464;2023-02-22T09:42:41;11.50;;;5.10;;
59587;SDS011;45412;54.472;18.464;2023-02-22T09:46:25;11.90;;;5.10;;
59587;SDS011;45412;54.472;18.464;2023-02-22T09:49:39;15.80;;;6.50;;
59587;SDS011;45412;54.472;18.464;2023-02-22T09:52:38;17.70;;;7.20;;
59587;SDS011;45412;54.472;18.464;2023-02-22T10:07:35;18.70;;;8.40;;
59587;SDS011;45412;54.472;18.464;2023-02-22T10:10:33;17.50;;;8.10;;
59587;SDS011;45412;54.472;18.464;2023-02-22T10:17:03;13.80;;;5.90;;
59587;SDS011;45412;54.472;18.464;2023-02-22T10:20:21;12.70;;;6.10;;
59587;SDS011;45412;54.472;18.464;2023-02-22T10:26:35;11.60;;;4.80;;
59587;SDS011;45412;54.472;18.464;2023-02-22T10:29:42;10.80;;;4.50;;
59587;SDS011;45412;54.472;18.464;2023-02-22T10:32:44;10.20;;;3.70;;
59587;SDS011;45412;54.472;18.464;2023-02-22T10:35:38;9.50;;;3.30;;
59587;SDS011;45412;54.472;18.464;2023-02-22T10:38:29;8.70;;;3.00;;
59587;SDS011;45412;54.472;18.464;2023-02-22T10:41:32;8.40;;;2.80;;
59587;SDS011;45412;54.472;18.464;2023-02-22T10:44:23;8.50;;;2.90;;
59587;SDS011;45412;54.472;18.464;2023-02-22T10:47:12;8.10;;;3.10;;
59587;SDS011;45412;54.472;18.464;2023-02-22T10:50:04;9.20;;;3.30;;
59587;SDS011;45412;54.472;18.464;2023-02-22T10:52:53;9.20;;;2.90;;
59587;SDS011;45412;54.472;18.464;2023-02-22T10:59:05;7.80;;;3.00;;
59587;SDS011;45412;54.472;18.464;2023-02-22T11:01:54;7.60;;;3.00;;
59587;SDS011;45412;54.472;18.464;2023-02-22T11:04:49;8.20;;;2.80;;
59587;SDS011;45412;54.472;18.464;2023-02-22T11:07:39;6.90;;;2.50;;
59587;SDS011;45412;54.472;18.464;2023-02-22T11:10:32;6.50;;;2.40;;
59587;SDS011;45412;54.472;18.464;2023-02-22T11:16:33;8.40;;;3.50;;
59587;SDS011;45412;54.472;18.464;2023-02-22T11:19:30;7.20;;;2.80;;
59587;SDS011;45412;54.472;18.464;2023-02-22T11:25:19;8.20;;;3.20;;
59587;SDS011;45412;54.472;18.464;2023-02-22T11:28:26;7.40;;;2.60;;
59587;SDS011;45412;54.472;18.464;2023-02-22T11:31:27;7.80;;;2.90;;
59587;SDS011;45412;54.472;18.464;2023-02-22T11:34:29;11.00;;;3.70;;
59587;SDS011;45412;54.472;18.464;2023-02-22T11:37:33;7.70;;;3.20;;
59587;SDS011;45412;54.472;18.464;2023-02-22T11:40:25;7.80;;;2.90;;
59587;SDS011;45412;54.472;18.464;2023-02-22T11:43:18;8.50;;;3.40;;
59587;SDS011;45412;54.472;18.464;2023-02-22T11:46:17;7.30;;;2.60;;
59587;SDS011;45412;54.472;18.464;2023-02-22T11:49:09;7.90;;;2.90;;
59587;SDS011;45412;54.472;18.464;2023-02-22T11:55:36;26.40;;;11.70;;
59587;SDS011;45412;54.472;18.464;2023-02-22T12:01:48;9.50;;;3.70;;
59587;SDS011;45412;54.472;18.464;2023-02-22T12:08:05;7.90;;;3.10;;
59587;SDS011;45412;54.472;18.464;2023-02-22T12:11:16;9.90;;;2.90;;
59587;SDS011;45412;54.472;18.464;2023-02-22T12:14:25;8.30;;;2.80;;
59587;SDS011;45412;54.472;18.464;2023-02-22T12:20:22;8.20;;;3.10;;
59587;SDS011;45412;54.472;18.464;2023-02-22T12:26:24;8.20;;;3.20;;
59587;SDS011;45412;54.472;18.464;2023-02-22T12:29:35;8.60;;;3.10;;
59587;SDS011;45412;54.472;18.464;2023-02-22T12:32:38;8.90;;;3.20;;
59587;SDS011;45412;54.472;18.464;2023-02-22T12:35:49;8.90;;;3.20;;
59587;SDS011;45412;54.472;18.464;2023-02-22T12:38:42;9.60;;;3.40;;
59587;SDS011;45412;54.472;18.464;2023-02-22T12:41:46;8.40;;;3.50;;
59587;SDS011;45412;54.472;18.464;2023-02-22T12:44:41;8.60;;;3.00;;
59587;SDS011;45412;54.472;18.464;2023-02-22T12:47:41;9.90;;;2.80;;
59587;SDS011;45412;54.472;18.464;2023-02-22T12:50:36;8.80;;;3.20;;
59587;SDS011;45412;54.472;18.464;2023-02-22T12:53:36;9.80;;;2.80;;
59587;SDS011;45412;54.472;18.464;2023-02-22T12:56:33;7.90;;;2.90;;
59587;SDS011;45412;54.472;18.464;2023-02-22T12:59:40;9.50;;;2.40;;
59587;SDS011;45412;54.472;18.464;2023-02-22T13:21:48;9.00;;;3.10;;
59587;SDS011;45412;54.472;18.464;2023-02-22T13:28:06;10.10;;;3.40;;
59587;SDS011;45412;54.472;18.464;2023-02-22T13:34:46;9.50;;;2.90;;
59587;SDS011;45412;54.472;18.464;2023-02-22T13:47:40;9.00;;;3.50;;
59587;SDS011;45412;54.472;18.464;2023-02-22T13:53:57;8.80;;;3.00;;
59587;SDS011;45412;54.472;18.464;2023-02-22T13:56:53;8.80;;;3.10;;
59587;SDS011;45412;54.472;18.464;2023-02-22T13:59:43;15.30;;;5.90;;
59587;SDS011;45412;54.472;18.464;2023-02-22T14:05:55;10.20;;;3.20;;
59587;SDS011;45412;54.472;18.464;2023-02-22T14:08:47;11.30;;;4.00;;
59587;SDS011;45412;54.472;18.464;2023-02-22T14:11:39;11.70;;;3.60;;
59587;SDS011;45412;54.472;18.464;2023-02-22T14:14:29;10.40;;;3.50;;
59587;SDS011;45412;54.472;18.464;2023-02-22T14:17:26;9.90;;;3.60;;
59587;SDS011;45412;54.472;18.464;2023-02-22T14:20:17;8.60;;;3.00;;
59587;SDS011;45412;54.472;18.464;2023-02-22T14:23:32;7.60;;;2.70;;
59587;SDS011;45412;54.472;18.464;2023-02-22T14:26:37;8.30;;;2.90;;
59587;SDS011;45412;54.472;18.464;2023-02-22T14:29:27;9.00;;;3.10;;
59587;SDS011;45412;54.472;18.464;2023-02-22T14:32:15;8.60;;;2.70;;
59587;SDS011;45412;54.472;18.464;2023-02-22T14:35:11;7.90;;;2.60;;
59587;SDS011;45412;54.472;18.464;2023-02-22T14:38:16;6.80;;;2.60;;
59587;SDS011;45412;54.472;18.464;2023-02-22T14:41:06;8.70;;;2.70;;
59587;SDS011;45412;54.472;18.464;2023-02-22T14:43:55;7.00;;;2.60;;
59587;SDS011;45412;54.472;18.464;2023-02-22T14:46:46;7.10;;;3.00;;
59587;SDS011;45412;54.472;18.464;2023-02-22T14:49:42;7.20;;;2.60;;
59587;SDS011;45412;54.472;18.464;2023-02-22T14:52:35;6.10;;;2.20;;
59587;SDS011;45412;54.472;18.464;2023-02-22T14:55:30;10.60;;;3.20;;
59587;SDS011;45412;54.472;18.464;2023-02-22T14:58:39;9.60;;;3.00;;
59587;SDS011;45412;54.472;18.464;2023-02-22T15:01:34;8.90;;;3.20;;
59587;SDS011;45412;54.472;18.464;2023-02-22T15:04:52;8.40;;;2.90;;
59587;SDS011;45412;54.472;18.464;2023-02-22T15:08:02;7.80;;;3.00;;
59587;SDS011;45412;54.472;18.464;2023-02-22T15:10:53;7.60;;;2.40;;
59587;SDS011;45412;54.472;18.464;2023-02-22T15:13:51;8.50;;;3.00;;
59587;SDS011;45412;54.472;18.464;2023-02-22T15:16:41;9.40;;;3.10;;
59587;SDS011;45412;54.472;18.464;2023-02-22T15:19:39;8.70;;;3.20;;
59587;SDS011;45412;54.472;18.464;2023-02-22T15:22:33;10.50;;;3.70;;
59587;SDS011;45412;54.472;18.464;2023-02-22T15:25:24;10.10;;;3.70;;
59587;SDS011;45412;54.472;18.464;2023-02-22T15:28:17;9.70;;;3.60;;
59587;SDS011;45412;54.472;18.464;2023-02-22T15:37:22;9.00;;;3.70;;
59587;SDS011;45412;54.472;18.464;2023-02-22T15:40:17;11.00;;;4.10;;
59587;SDS011;45412;54.472;18.464;2023-02-22T15:43:15;9.20;;;3.30;;
59587;SDS011;45412;54.472;18.464;2023-02-22T15:46:06;11.30;;;3.90;;
59587;SDS011;45412;54.472;18.464;2023-02-22T15:49:17;9.50;;;3.80;;
59587;SDS011;45412;54.472;18.464;2023-02-22T15:52:18;9.00;;;3.60;;
59587;SDS011;45412;54.472;18.464;2023-02-22T15:55:10;10.30;;;3.70;;
59587;SDS011;45412;54.472;18.464;2023-02-22T15:58:01;10.10;;;4.10;;
59587;SDS011;45412;54.472;18.464;2023-02-22T16:01:07;9.10;;;3.50;;
59587;SDS011;45412;54.472;18.464;2023-02-22T16:04:04;10.00;;;3.90;;
59587;SDS011;45412;54.472;18.464;2023-02-22T16:07:04;12.80;;;4.40;;
59587;SDS011;45412;54.472;18.464;2023-02-22T16:10:04;11.00;;;4.10;;
59587;SDS011;45412;54.472;18.464;2023-02-22T16:13:04;11.30;;;3.80;;
59587;SDS011;45412;54.472;18.464;2023-02-22T16:18:50;8.60;;;3.30;;
59587;SDS011;45412;54.472;18.464;2023-02-22T16:25:25;9.90;;;3.70;;
59587;SDS011;45412;54.472;18.464;2023-02-22T16:28:29;8.40;;;3.30;;
59587;SDS011;45412;54.472;18.464;2023-02-22T16:31:22;8.40;;;3.60;;
59587;SDS011;45412;54.472;18.464;2023-02-22T16:34:13;7.70;;;2.90;;
59587;SDS011;45412;54.472;18.464;2023-02-22T16:37:02;7.80;;;3.30;;
59587;SDS011;45412;54.472;18.464;2023-02-22T16:39:50;7.80;;;2.90;;
59587;SDS011;45412;54.472;18.464;2023-02-22T16:42:38;9.80;;;3.50;;
59587;SDS011;45412;54.472;18.464;2023-02-22T16:45:26;10.00;;;3.70;;
59587;SDS011;45412;54.472;18.464;2023-02-22T16:48:24;10.50;;;3.90;;
59587;SDS011;45412;54.472;18.464;2023-02-22T16:51:20;9.20;;;3.40;;
59587;SDS011;45412;54.472;18.464;2023-02-22T16:54:13;9.90;;;4.10;;
59587;SDS011;45412;54.472;18.464;2023-02-22T16:57:05;9.80;;;4.30;;
59587;SDS011;45412;54.472;18.464;2023-02-22T16:59:54;9.10;;;4.20;;
59587;SDS011;45412;54.472;18.464;2023-02-22T17:02:42;10.50;;;4.20;;
59587;SDS011;45412;54.472;18.464;2023-02-22T17:05:31;11.00;;;4.50;;
59587;SDS011;45412;54.472;18.464;2023-02-22T17:08:23;11.00;;;4.00;;
59587;SDS011;45412;54.472;18.464;2023-02-22T17:11:11;11.50;;;5.00;;
59587;SDS011;45412;54.472;18.464;2023-02-22T17:14:01;12.80;;;4.60;;
59587;SDS011;45412;54.472;18.464;2023-02-22T17:16:50;11.60;;;4.40;;
59587;SDS011;45412;54.472;18.464;2023-02-22T17:19:38;10.90;;;4.50;;
59587;SDS011;45412;54.472;18.464;2023-02-22T17:22:27;11.10;;;4.90;;
59587;SDS011;45412;54.472;18.464;2023-02-22T17:25:19;9.70;;;4.50;;
59587;SDS011;45412;54.472;18.464;2023-02-22T17:28:09;11.30;;;4.90;;
59587;SDS011;45412;54.472;18.464;2023-02-22T17:30:59;12.00;;;4.30;;
59587;SDS011;45412;54.472;18.464;2023-02-22T17:33:51;10.00;;;4.20;;
59587;SDS011;45412;54.472;18.464;2023-02-22T17:36:41;10.90;;;4.20;;
59587;SDS011;45412;54.472;18.464;2023-02-22T17:39:30;10.70;;;4.40;;
59587;SDS011;45412;54.472;18.464;2023-02-22T17:42:18;10.80;;;4.70;;
59587;SDS011;45412;54.472;18.464;2023-02-22T17:45:08;10.30;;;4.40;;
59587;SDS011;45412;54.472;18.464;2023-02-22T17:48:00;10.00;;;4.50;;
59587;SDS011;45412;54.472;18.464;2023-02-22T17:50:48;10.50;;;4.50;;
59587;SDS011;45412;54.472;18.464;2023-02-22T17:53:37;10.30;;;4.50;;
59587;SDS011;45412;54.472;18.464;2023-02-22T17:56:25;9.90;;;4.40;;
59587;SDS011;45412;54.472;18.464;2023-02-22T17:59:13;10.00;;;4.60;;
59587;SDS011;45412;54.472;18.464;2023-02-22T18:02:01;10.30;;;5.00;;
59587;SDS011;45412;54.472;18.464;2023-02-22T18:04:50;11.00;;;4.80;;
59587;SDS011;45412;54.472;18.464;2023-02-22T18:07:37;10.00;;;4.20;;
59587;SDS011;45412;54.472;18.464;2023-02-22T18:10:25;11.10;;;3.90;;
59587;SDS011;45412;54.472;18.464;2023-02-22T18:13:15;11.50;;;4.30;;
59587;SDS011;45412;54.472;18.464;2023-02-22T18:16:06;9.80;;;3.90;;
59587;SDS011;45412;54.472;18.464;2023-02-22T18:18:55;12.50;;;4.40;;
59587;SDS011;45412;54.472;18.464;2023-02-22T18:21:46;10.00;;;4.40;;
59587;SDS011;45412;54.472;18.464;2023-02-22T18:24:34;12.70;;;4.40;;
59587;SDS011;45412;54.472;18.464;2023-02-22T18:27:22;13.50;;;4.20;;
59587;SDS011;45412;54.472;18.464;2023-02-22T18:30:12;9.50;;;4.20;;
59587;SDS011;45412;54.472;18.464;2023-02-22T18:33:01;10.80;;;4.20;;
59587;SDS011;45412;54.472;18.464;2023-02-22T18:35:50;14.70;;;4.40;;
59587;SDS011;45412;54.472;18.464;2023-02-22T18:38:40;10.10;;;4.00;;
59587;SDS011;45412;54.472;18.464;2023-02-22T18:41:29;10.30;;;4.20;;
59587;SDS011;45412;54.472;18.464;2023-02-22T18:44:17;9.40;;;3.90;;
59587;SDS011;45412;54.472;18.464;2023-02-22T18:47:05;12.30;;;4.20;;
59587;SDS011;45412;54.472;18.464;2023-02-22T18:49:53;10.80;;;4.50;;
59587;SDS011;45412;54.472;18.464;2023-02-22T18:52:42;15.30;;;4.70;;
59587;SDS011;45412;54.472;18.464;2023-02-22T18:55:34;11.10;;;4.80;;
59587;SDS011;45412;54.472;18.464;2023-02-22T18:58:25;15.60;;;5.20;;
59587;SDS011;45412;54.472;18.464;2023-02-22T19:01:15;15.30;;;5.50;;
59587;SDS011;45412;54.472;18.464;2023-02-22T19:04:07;12.90;;;5.10;;
59587;SDS011;45412;54.472;18.464;2023-02-22T19:06:59;12.20;;;5.00;;